Search for airport 
image banner adimage banner adimage banner ad
image banner ad

SCCY - Teniente Vidal

Located in Coyhaique, Chile

ICAO - SCCY, IATA - GXQ

Data provided by Airmate  

General information

Coordinates: S45°35'37" W72°6'19"
Elevation is 1020 feet MSL.
Magnetic variation is 10° East
View others Airports in Aisén del General Carlos Ibañez

Operational data

Special qualification required
Current time UTC:
Current local time:
Weather
METAR: SCCY 060000Z 00000KT CAVOK 00/M00 Q1025
TAF: TAF SCCY 051026Z 0512/0524 VRB03KT 2000 BR BKN003 TNM01/0512Z TX09/0518Z BECMG 0513/0515 20005KT CAVOK
View NOTAMs / SUP AIP / TFR affecting this airport [VIEW]
Communications frequencies: [VIEW]

Runways:

RWY identifierQFULength (ft)Width (ft)SurfaceLDA (ft)
0345°5045100ASPH
21225°5045100ASPH

Airport contact information

Address: Coyhaique Chile

Other aviation service providers

Aviation club (not for profit)

Club Aéreo Coyhaique

Club Aéreo Coyhaique

Satellite view of SCCY